Impacts TAF Board
For situational awareness. Not to be used for flight planning purposes.
IDs:

KMOB - Mobile Rgnl, AL, US

Issued at 1733 UTC 02 Oct 2022
Updated at 1931 UTC 02 Oct 2022
Potential Impact None Slight Moderate High
Time1856Z 02/20Z 02/21Z 02/22Z 02/23Z 03/00Z 03/01Z 03/02Z 03/03Z 03/04Z 03/05Z 03/06Z 03/07Z 03/08Z>>
Type OBS PRVL PRVL PRVL PRVL PRVL PRVL PRVL PRVL PRVL PRVL PRVL PRVL PRVL
VIS 10 >6 >6 >6 >6 >6 >6 >6 >6 >6 >6 >6 >6 >6
CIG -- -- -- -- -- -- -- -- -- -- -- -- -- --
Cover CLR SKC SKC SKC SKC SKC SKC SKC SKC SKC SKC SKC SKC SKC
FltCat VFR VFR VFR VFR VFR VFR VFR VFR VFR VFR VFR VFR VFR VFR
WX -- -- -- -- -- -- -- -- -- -- -- -- -- --
WDir 350 340 340 340 340 340 340 340 340 340 340 340 340 340
WSpd 10 7 7 7 7 7 7 7 7 7 7 7 7 7
WGst 18 -- -- -- -- -- -- -- -- -- -- -- -- --
WSHgt -- -- -- -- -- -- -- -- -- -- -- -- -- --
WSDir -- -- -- -- -- -- -- -- -- -- -- -- -- --
WSSpd -- -- -- -- -- -- -- -- -- -- -- -- -- --
R15/33
XWnd 4 2 2 2 2 2 2 2 2 2 2 2 2 2
XGst 8 -- -- -- -- -- -- -- -- -- -- -- -- --
HWnd -9 -7 -7 -7 -7 -7 -7 -7 -7 -7 -7 -7 -7 -7
HGst -16 -- -- -- -- -- -- -- -- -- -- -- -- --
R18/36
XWnd -2 -2 -2 -2 -2 -2 -2 -2 -2 -2 -2 -2 -2 -2
XGst -3 -- -- -- -- -- -- -- -- -- -- -- -- --
HWnd -10 -7 -7 -7 -7 -7 -7 -7 -7 -7 -7 -7 -7 -7
HGst -18 -- -- -- -- -- -- -- -- -- -- -- -- --
Raw TAF
KMOB 021733Z 0218/0318 34007KT P6SM SKC
  FM031500 02007KT P6SM SKC


Raw METAR
KMOB 021856Z 35010G18KT 10SM CLR 30/04 A3003 RMK AO2 SLP166 T03000044
KMOB 021756Z 35007KT 10SM CLR 29/07 A3005 RMK AO2 SLP173 T02890072 10289 20128 58012
KMOB 021656Z 01007KT 10SM CLR 28/08 A3007 RMK AO2 SLP180 T02780083

METAR Board
Radar Display
Forecast Discussion
For situational awareness. Not to be used for flight planning purposes.